Fayetteville, AR (72701)

10:33 PM CDT on September 01, 2014 (GMT -0500)
Porter Road, Fayetteville | Change Station
CLOSE
Current Station
Personal Weather Station
Location: Fayetteville, AR
Elevation: 1260 ft
Nearby Weather Stations
Active Advisory: Severe Thunderstorm Watch

Elev 1260 ft 36.08 °N, 94.19 °W | Updated 39 minutes ago

Clear
Clear
80.2 °F
Feels Like 84 °F
N
2.5
Wind Variable Wind from SE
Gusts 2.5 mph

Today
High -- | Low -- °F
--% Chance of Precip.
Yesterday
High -- | Low -- °F
Precip. -- in
6:48 AM 7:44 PM
Waxing Crescent, 47% visible
Pressure 29.87 in
Visibility 10.0 miles
Clouds Clear
Heat Index 84 °F
Dew Point 73 °F
Humidity 78%
Rainfall 0.06 in
Snow Depth Not available.
UV 0 out of 12
Pollen 10.90 out of 12
Air Quality Not available.
Flu Activity Not available.
METAR KFYV 020253Z 19009KT 10SM CLR 26/21 A2991 RMK AO2 SLP114 T02610206 53008

More Conditions Fewer Conditions

Pressure 29.87 in
Visibility 10.0 miles
Clouds Clear
Heat Index 84 °F
Dew Point 73 °F
Humidity 78%
Rainfall 0.06 in
Snow Depth Not available.
UV 0 out of 12
Pollen 10.90 out of 12
Air Quality Not available.
Flu Activity Not available.
METAR KFYV 020253Z 19009KT 10SM CLR 26/21 A2991 RMK AO2 SLP114 T02610206 53008

More Conditions Fewer Conditions

Nowcast | as of 9:39 PM CDT on September 1, 2014

At 9:35 PM... National Weather Service Doppler radar continued to indicate scattered thunderstorms skirting eastward at around 30 mph along the Kansas border with northeast Oklahoma. Through 11:00 PM... thunderstorms may be severe... with straight line winds exceeding 60 mph and the formation of large hail being the main concerns. The tornadic concern is expected to continue to diminish. Brief heavy rain is also likely with the strongest of storms. A Severe Thunderstorm Watch is in effect for north central and northeast Oklahoma... predominantly along and north of Highway 412 until 10 PM CDT Monday.

×

10-Day Weather Forecast

Almanac

Astronomy

Sep. 01, 2014 Rise Set
Actual Time 6:48 AM CDT 7:44 PM CDT
Civil Twilight 6:22 AM CDT 8:10 PM CDT
Nautical Twilight 5:50 AM CDT 8:41 PM CDT
Astronomical Twilight 5:18 AM CDT 9:13 PM CDT
Moon 1:22 PM CDT (9/1) 11:58 PM CDT (9/1)
Length of Visible Light 13h 48m
Length of Day
12h 55m
Tomorrow will be 2m 11s shorter.
Waxing Crescent, 47% of the Moon is Illuminated
Today
Waxing Crescent
Sep 2
First Quarter
Sep 8
Full
Sep 15
Last Quarter
Sep 24
New

Today's Extremes

State Highs State Lows

Community

WunderPhotos

Upload Photos

1,749,555 photos uploaded!

WunderBlogs® & News

Nearby

Snow Depth

Station Depth Elevation
No new snow has been reported.

Earthquake Activity

City Distance Mag. Time & Date
No recent earthquake activity has been reported nearby.
Minimum magnitude displayed is 2.5.

Coastal Water Temperatures

Place Temperature
No Stations Reporting

Nearby Weather Stations